createdAt,value
2022-11-27T06:38:38.139Z,2.23
2022-11-27T06:39:40.165Z,2.19
2022-11-27T06:40:42.184Z,2.19
2022-11-27T06:41:44.188Z,2.19
2022-11-27T06:42:46.335Z,2.24
2022-11-27T06:43:48.334Z,2.17
2022-11-27T06:44:50.349Z,2.19
2022-11-27T06:45:52.440Z,2.21
2022-11-27T06:46:54.414Z,2.27
2022-11-27T06:47:56.431Z,2.32
2022-11-27T06:48:58.533Z,2.34
2022-11-27T06:50:00.536Z,2.37
2022-11-27T06:51:02.548Z,2.41
2022-11-27T06:52:04.555Z,2.38
2022-11-27T06:53:06.640Z,2.42
2022-11-27T06:54:08.645Z,2.34
2022-11-27T06:55:10.644Z,2.31
2022-11-27T06:56:12.650Z,2.25
2022-11-27T06:57:14.661Z,2.27
2022-11-27T06:58:16.697Z,2.35
2022-11-27T06:59:18.721Z,2.45
2022-11-27T07:00:20.745Z,2.48
2022-11-27T07:01:22.857Z,2.53
2022-11-27T07:02:24.910Z,2.55
2022-11-27T07:03:26.941Z,2.48
2022-11-27T07:04:28.948Z,2.46
2022-11-27T07:05:30.957Z,2.46
2022-11-27T07:06:32.965Z,2.52
2022-11-27T07:07:37.589Z,2.60
2022-11-27T07:08:36.411Z,2.68
2022-11-27T07:09:38.415Z,2.72
2022-11-27T07:10:40.428Z,2.69
2022-11-27T07:11:42.454Z,2.66
2022-11-27T07:12:44.483Z,2.63
2022-11-27T07:13:46.498Z,2.61
2022-11-27T07:14:48.505Z,2.56
2022-11-27T07:15:50.514Z,2.53
2022-11-27T07:16:52.575Z,2.53
2022-11-27T07:17:54.590Z,2.55
2022-11-27T07:18:56.627Z,2.53
2022-11-27T07:19:58.654Z,2.52
2022-11-27T07:21:00.657Z,2.55
2022-11-27T07:22:02.658Z,2.61
2022-11-27T07:23:04.688Z,2.66
2022-11-27T07:24:06.738Z,2.72
2022-11-27T07:25:08.748Z,2.77
2022-11-27T07:26:10.738Z,2.80
2022-11-27T07:27:12.765Z,2.79
2022-11-27T07:28:18.642Z,2.77
2022-11-27T07:29:16.705Z,2.75
2022-11-27T07:30:18.739Z,2.79
2022-11-27T07:31:20.806Z,2.72
2022-11-27T07:32:22.806Z,2.75
2022-11-27T07:33:24.813Z,2.83
2022-11-27T07:34:37.385Z,2.85
2022-11-27T07:35:28.408Z,2.89
2022-11-27T07:36:30.422Z,2.83
2022-11-27T07:37:32.425Z,2.83
2022-11-27T07:38:34.444Z,2.83
2022-11-27T07:40:00.879Z,2.82
2022-11-27T07:40:37.935Z,2.82
2022-11-27T07:41:39.942Z,2.77
2022-11-27T07:42:41.947Z,2.77
2022-11-27T07:43:43.962Z,2.80
2022-11-27T07:44:45.969Z,2.79
2022-11-27T07:45:48.019Z,2.83
2022-11-27T07:46:50.054Z,2.86
2022-11-27T07:47:52.083Z,2.85
2022-11-27T07:48:54.083Z,2.85
2022-11-27T07:49:56.100Z,2.93
2022-11-27T07:50:58.117Z,3.00
2022-11-27T07:52:00.130Z,3.08
2022-11-27T07:53:02.137Z,3.08
2022-11-27T07:54:04.167Z,3.18
2022-11-27T07:55:06.191Z,3.21
2022-11-27T07:56:08.207Z,3.22
2022-11-27T07:57:10.216Z,3.23
2022-11-27T07:58:12.204Z,3.29
2022-11-27T07:59:14.232Z,3.34
2022-11-27T08:00:16.241Z,3.40
2022-11-27T08:01:18.426Z,3.43
2022-11-27T08:02:19.355Z,3.41
2022-11-27T08:03:21.362Z,3.39
2022-11-27T08:04:23.941Z,3.32
2022-11-27T08:05:24.882Z,3.31
2022-11-27T08:06:26.883Z,3.28
2022-11-27T08:07:28.962Z,3.28
2022-11-27T08:08:31.000Z,3.31
2022-11-27T08:09:33.005Z,3.39
2022-11-27T08:10:35.035Z,3.49
2022-11-27T08:11:37.059Z,3.55
2022-11-27T08:12:39.067Z,3.47
2022-11-27T08:13:41.094Z,3.43
2022-11-27T08:14:43.247Z,3.40
2022-11-27T08:15:45.238Z,3.46
2022-11-27T08:16:47.358Z,3.50
2022-11-27T08:17:49.393Z,3.61
2022-11-27T08:18:51.404Z,3.55
2022-11-27T08:19:53.400Z,3.55
2022-11-27T08:20:55.406Z,3.65
2022-11-27T08:21:57.425Z,3.75
2022-11-27T08:23:02.773Z,3.79
2022-11-27T08:24:00.823Z,3.83
2022-11-27T08:25:02.851Z,3.80
2022-11-27T08:26:04.856Z,3.83
2022-11-27T08:27:06.900Z,3.82
2022-11-27T08:28:08.911Z,3.85
2022-11-27T08:29:10.939Z,3.90
2022-11-27T08:30:12.969Z,3.91
2022-11-27T08:31:15.047Z,3.97
2022-11-27T08:32:17.084Z,4.00
2022-11-27T08:33:19.090Z,3.98
2022-11-27T08:34:21.109Z,3.98
2022-11-27T08:35:23.116Z,3.94
2022-11-27T08:36:25.203Z,3.93
2022-11-27T08:37:27.220Z,3.93
2022-11-27T08:38:29.254Z,3.86
2022-11-27T08:39:31.232Z,3.85
2022-11-27T08:40:33.241Z,3.82
2022-11-27T08:41:35.246Z,3.90
2022-11-27T08:42:37.265Z,3.95
2022-11-27T08:43:39.289Z,4.00
2022-11-27T08:44:41.593Z,4.05
2022-11-27T08:45:42.684Z,4.10
2022-11-27T08:46:44.650Z,4.12
2022-11-27T08:47:46.674Z,4.13
2022-11-27T08:48:48.657Z,3.98
2022-11-27T08:49:50.675Z,4.05
2022-11-27T08:50:52.682Z,4.07
2022-11-27T08:51:54.708Z,4.05
2022-11-27T08:52:56.744Z,4.01
2022-11-27T08:53:58.761Z,4.03
2022-11-27T08:55:00.762Z,4.12
2022-11-27T08:56:02.764Z,4.12
2022-11-27T08:57:04.776Z,4.16
2022-11-27T08:58:06.818Z,4.24
2022-11-27T08:59:08.844Z,4.34
2022-11-27T09:00:10.853Z,4.37
2022-11-27T09:01:12.893Z,4.40
2022-11-27T09:02:14.881Z,4.42
2022-11-27T09:03:16.936Z,4.40
2022-11-27T09:04:19.078Z,4.42
2022-11-27T09:05:21.079Z,4.44
2022-11-27T09:06:23.108Z,4.45
2022-11-27T09:07:25.191Z,4.48
2022-11-27T09:08:27.182Z,4.48
2022-11-27T09:09:29.191Z,4.55
2022-11-27T09:10:31.201Z,4.60
2022-11-27T09:11:33.228Z,4.62
2022-11-27T09:12:38.215Z,4.60
2022-11-27T09:13:36.686Z,4.63
2022-11-27T09:14:38.857Z,4.70
2022-11-27T09:15:39.907Z,4.67
2022-11-27T09:16:41.993Z,4.67
2022-11-27T09:17:44.017Z,4.74
2022-11-27T09:18:46.037Z,4.75
2022-11-27T09:19:48.038Z,4.77
2022-11-27T09:20:50.273Z,4.86
2022-11-27T09:21:51.197Z,4.86
2022-11-27T09:22:53.221Z,4.91
2022-11-27T09:23:55.238Z,5.01
2022-11-27T09:24:57.240Z,5.06
2022-11-27T09:25:59.245Z,5.04
2022-11-27T09:27:01.256Z,5.09
2022-11-27T09:28:03.278Z,5.13
2022-11-27T09:29:05.351Z,5.16
2022-11-27T09:30:07.365Z,5.20
2022-11-27T09:31:09.368Z,5.22
2022-11-27T09:32:11.436Z,5.24
2022-11-27T09:33:13.439Z,5.28
2022-11-27T09:34:15.468Z,5.31
2022-11-27T09:35:17.548Z,5.34
2022-11-27T09:36:19.563Z,5.34
2022-11-27T09:37:21.590Z,5.42
2022-11-27T09:38:23.607Z,5.42
2022-11-27T09:39:25.656Z,5.35
2022-11-27T09:40:27.663Z,5.38
2022-11-27T09:41:29.696Z,5.47
2022-11-27T09:42:31.719Z,5.54
2022-11-27T09:43:33.727Z,5.61
2022-11-27T09:44:35.744Z,5.64
2022-11-27T09:45:37.771Z,5.68
2022-11-27T09:46:39.770Z,5.72
2022-11-27T09:47:42.085Z,5.75
2022-11-27T09:48:42.966Z,5.66
2022-11-27T09:49:45.027Z,5.68
2022-11-27T09:50:47.034Z,5.72
2022-11-27T09:51:49.060Z,5.73
2022-11-27T09:52:51.066Z,5.75
2022-11-27T09:53:53.072Z,5.83
2022-11-27T09:54:55.089Z,5.86
2022-11-27T09:55:57.097Z,5.83
2022-11-27T09:56:59.126Z,5.82
2022-11-27T09:58:01.133Z,5.84
2022-11-27T09:59:03.165Z,5.83
2022-11-27T10:00:05.186Z,5.82
2022-11-27T10:01:07.205Z,5.82
2022-11-27T10:02:09.286Z,5.87
2022-11-27T10:03:11.398Z,5.94
2022-11-27T10:04:13.431Z,6.01
2022-11-27T10:05:15.786Z,5.99
2022-11-27T10:06:17.137Z,6.05
2022-11-27T10:07:19.228Z,6.16
2022-11-27T10:08:21.220Z,6.20
2022-11-27T10:09:23.233Z,6.27
2022-11-27T10:10:25.257Z,6.32
2022-11-27T10:11:27.243Z,6.38
2022-11-27T10:12:29.271Z,6.37
2022-11-27T10:13:31.277Z,6.41
2022-11-27T10:14:33.307Z,6.59
2022-11-27T10:15:35.351Z,7.21
2022-11-27T10:16:42.863Z,8.52
2022-11-27T10:17:38.804Z,9.75
2022-11-27T10:18:40.821Z,10.83
2022-11-27T10:19:42.836Z,11.66
2022-11-27T10:20:44.858Z,12.46
2022-11-27T10:21:46.870Z,13.16
2022-11-27T10:22:48.904Z,13.62
2022-11-27T10:23:50.941Z,14.08
2022-11-27T10:24:52.977Z,14.22
2022-11-27T10:25:55.028Z,14.59
2022-11-27T10:26:57.065Z,14.95
2022-11-27T10:27:59.079Z,15.36
2022-11-27T10:29:01.100Z,15.68
2022-11-27T10:30:03.137Z,16.10
2022-11-27T10:31:05.225Z,16.56
2022-11-27T10:32:07.303Z,16.88
2022-11-27T10:33:09.304Z,17.19
2022-11-27T10:34:11.320Z,17.20
2022-11-27T10:35:13.361Z,17.26
2022-11-27T10:36:15.397Z,16.74
2022-11-27T10:37:17.457Z,16.82
2022-11-27T10:38:19.475Z,17.29
2022-11-27T10:39:21.558Z,17.64
2022-11-27T10:40:23.596Z,18.02
2022-11-27T10:41:48.349Z,17.71
2022-11-27T10:42:27.136Z,17.93
2022-11-27T10:43:29.157Z,18.27
2022-11-27T10:44:31.196Z,18.60
2022-11-27T10:45:33.215Z,18.75
2022-11-27T10:46:35.239Z,18.75
2022-11-27T10:47:37.259Z,18.88
2022-11-27T10:48:39.297Z,18.83
2022-11-27T10:49:41.310Z,18.70
2022-11-27T10:50:43.320Z,18.59
2022-11-27T10:51:45.344Z,18.80
2022-11-27T10:52:51.123Z,18.89
2022-11-27T10:53:48.843Z,18.98
2022-11-27T10:54:50.839Z,18.98
2022-11-27T10:55:52.877Z,19.06
2022-11-27T10:56:54.919Z,18.68
2022-11-27T10:57:56.956Z,18.77
2022-11-27T10:58:58.970Z,19.07
2022-11-27T11:00:00.969Z,19.08
2022-11-27T11:01:03.046Z,18.81
2022-11-27T11:02:05.149Z,18.93
2022-11-27T11:03:07.132Z,18.83
2022-11-27T11:04:31.290Z,18.68
2022-11-27T11:05:32.779Z,18.55
2022-11-27T11:06:20.506Z,18.44
2022-11-27T11:07:13.505Z,18.10
2022-11-27T11:08:15.534Z,17.36
2022-11-27T11:09:17.571Z,16.63
2022-11-27T11:10:19.575Z,16.16
2022-11-27T11:11:21.608Z,14.85
2022-11-27T11:12:23.637Z,15.45
2022-11-27T11:13:25.650Z,15.55
2022-11-27T11:14:27.675Z,15.32
2022-11-27T11:15:29.690Z,14.78
2022-11-27T11:16:35.352Z,14.20
2022-11-27T11:17:33.491Z,13.45
2022-11-27T11:18:35.483Z,13.03
2022-11-27T11:19:37.503Z,12.70
2022-11-27T11:20:39.510Z,12.39
2022-11-27T11:21:41.545Z,12.03
2022-11-27T11:22:43.597Z,11.43
2022-11-27T11:23:45.610Z,11.04
2022-11-27T11:24:47.627Z,10.77
2022-11-27T11:25:49.628Z,10.53
2022-11-27T11:26:51.650Z,10.33
2022-11-27T11:27:53.696Z,10.05
2022-11-27T11:28:55.756Z,9.87
2022-11-27T11:29:57.784Z,9.80
2022-11-27T11:30:59.812Z,9.73
2022-11-27T11:32:01.889Z,9.64
2022-11-27T11:33:03.920Z,9.50
2022-11-27T11:34:05.916Z,9.31
2022-11-27T11:35:07.925Z,9.25
2022-11-27T11:36:09.950Z,9.21
2022-11-27T11:37:11.979Z,9.18
2022-11-27T11:38:13.994Z,9.13
2022-11-27T11:39:16.023Z,9.04
2022-11-27T11:40:18.061Z,9.02
2022-11-27T11:41:20.041Z,8.97
2022-11-27T11:42:22.071Z,8.99
2022-11-27T11:43:24.087Z,8.95
2022-11-27T11:44:26.099Z,8.99
2022-11-27T11:45:31.351Z,8.91
2022-11-27T11:46:30.242Z,8.88
2022-11-27T11:47:32.230Z,8.88
2022-11-27T11:48:34.248Z,8.87
2022-11-27T11:49:36.244Z,8.82
2022-11-27T11:50:38.300Z,8.74
2022-11-27T11:51:40.332Z,8.73
2022-11-27T11:52:42.421Z,8.73
2022-11-27T11:53:44.450Z,8.67
2022-11-27T11:54:46.458Z,8.55
2022-11-27T11:55:48.515Z,8.53
2022-11-27T11:56:50.548Z,8.48
2022-11-27T11:57:52.557Z,8.41
2022-11-27T11:58:54.579Z,8.38
2022-11-27T11:59:56.595Z,8.30
2022-11-27T12:01:25.338Z,8.29
2022-11-27T12:02:00.055Z,8.26
2022-11-27T12:03:02.068Z,8.27
2022-11-27T12:04:04.143Z,8.29
2022-11-27T12:05:06.173Z,8.32
2022-11-27T12:06:08.174Z,8.25
2022-11-27T12:07:10.183Z,8.18
2022-11-27T12:08:12.278Z,8.19
2022-11-27T12:09:14.370Z,8.14
2022-11-27T12:10:16.377Z,8.18
2022-11-27T12:11:18.384Z,8.18
2022-11-27T12:12:20.389Z,8.18
2022-11-27T12:13:22.416Z,8.12
2022-11-27T12:14:24.442Z,8.18
2022-11-27T12:15:26.459Z,8.18
2022-11-27T12:16:28.497Z,8.18
2022-11-27T12:17:30.525Z,8.17
2022-11-27T12:18:32.535Z,8.11
2022-11-27T12:19:34.569Z,8.12
2022-11-27T12:20:36.599Z,8.11
2022-11-27T12:21:38.622Z,8.12
2022-11-27T12:22:40.672Z,8.17
2022-11-27T12:23:42.680Z,8.17
2022-11-27T12:24:44.717Z,8.19
2022-11-27T12:25:46.725Z,8.18
2022-11-27T12:26:48.733Z,8.19
2022-11-27T12:27:50.741Z,8.17
2022-11-27T12:28:57.617Z,8.12
2022-11-27T12:29:54.178Z,8.14
2022-11-27T12:30:56.187Z,8.08
2022-11-27T12:31:58.288Z,8.11
2022-11-27T12:33:00.296Z,8.12
2022-11-27T12:34:02.302Z,8.15
2022-11-27T12:35:04.404Z,8.12
2022-11-27T12:36:06.408Z,8.09
2022-11-27T12:37:13.584Z,8.14
2022-11-27T12:38:09.892Z,8.18
2022-11-27T12:39:11.899Z,8.14
2022-11-27T12:40:13.943Z,8.15
2022-11-27T12:41:25.416Z,8.15
2022-11-27T12:42:21.775Z,8.12
2022-11-27T12:43:18.663Z,8.08
2022-11-27T12:44:20.670Z,8.07
2022-11-27T12:45:22.689Z,7.99
2022-11-27T12:46:24.813Z,7.99
2022-11-27T12:47:26.828Z,8.00
2022-11-27T12:48:28.836Z,7.96
2022-11-27T12:49:30.867Z,7.97
2022-11-27T12:50:32.887Z,7.99
2022-11-27T12:51:34.919Z,8.00
2022-11-27T12:52:36.945Z,8.02
2022-11-27T12:53:38.942Z,8.00
2022-11-27T12:54:41.188Z,8.00
2022-11-27T12:55:42.195Z,8.02
2022-11-27T12:56:44.201Z,8.02
2022-11-27T12:57:46.229Z,8.07
2022-11-27T12:58:48.239Z,8.05
2022-11-27T12:59:50.246Z,8.09
2022-11-27T13:00:52.293Z,8.11
2022-11-27T13:01:54.406Z,8.09
2022-11-27T13:02:56.529Z,8.12
2022-11-27T13:03:58.520Z,8.09
2022-11-27T13:05:00.547Z,8.14
2022-11-27T13:06:02.564Z,8.12
2022-11-27T13:07:04.571Z,8.07
2022-11-27T13:08:06.595Z,8.08
2022-11-27T13:09:08.598Z,8.08
2022-11-27T13:10:10.607Z,8.08
2022-11-27T13:11:12.641Z,8.09
2022-11-27T13:12:14.648Z,8.14
2022-11-27T13:13:16.656Z,8.14
2022-11-27T13:14:18.665Z,8.15
2022-11-27T13:15:20.673Z,8.11
2022-11-27T13:16:22.756Z,8.11
2022-11-27T13:17:24.727Z,8.12
2022-11-27T13:18:26.757Z,8.12
2022-11-27T13:19:28.765Z,8.12
2022-11-27T13:20:30.768Z,8.15
2022-11-27T13:21:32.774Z,8.12
2022-11-27T13:22:34.805Z,8.12
2022-11-27T13:23:36.812Z,8.15
2022-11-27T13:24:39.253Z,8.11
2022-11-27T13:25:40.389Z,8.12
2022-11-27T13:26:42.408Z,8.15
2022-11-27T13:27:44.431Z,8.18
2022-11-27T13:28:46.463Z,8.23
2022-11-27T13:29:48.448Z,8.27
2022-11-27T13:30:50.459Z,8.30
2022-11-27T13:31:52.476Z,8.27
2022-11-27T13:32:54.459Z,8.29
2022-11-27T13:33:56.467Z,8.26
2022-11-27T13:34:58.494Z,8.27
2022-11-27T13:36:00.502Z,8.27
2022-11-27T13:37:02.550Z,8.35
2022-11-27T13:38:04.576Z,8.37
2022-11-27T13:39:06.588Z,8.33
2022-11-27T13:40:08.595Z,8.37
2022-11-27T13:41:10.616Z,8.37
2022-11-27T13:42:12.653Z,8.38
2022-11-27T13:43:14.712Z,8.38
2022-11-27T13:44:16.726Z,8.44
2022-11-27T13:45:18.730Z,8.46
2022-11-27T13:46:20.826Z,8.44
2022-11-27T13:47:22.827Z,8.46
2022-11-27T13:48:24.842Z,8.45
2022-11-27T13:49:26.853Z,8.52
2022-11-27T13:50:31.468Z,8.49
2022-11-27T13:51:30.425Z,8.49
2022-11-27T13:52:32.441Z,8.55
2022-11-27T13:53:34.449Z,8.53
2022-11-27T13:54:36.483Z,8.58
2022-11-27T13:55:38.511Z,8.60
2022-11-27T13:56:40.514Z,8.56
2022-11-27T13:57:42.534Z,8.55
2022-11-27T13:58:44.540Z,8.64
2022-11-27T13:59:46.555Z,8.63
2022-11-27T14:00:48.620Z,8.66
2022-11-27T14:01:50.623Z,8.71
2022-11-27T14:02:52.615Z,8.67
2022-11-27T14:03:54.610Z,8.64
2022-11-27T14:04:56.901Z,8.60
2022-11-27T14:05:57.786Z,8.61
2022-11-27T14:06:59.816Z,8.61
2022-11-27T14:08:01.927Z,8.61
2022-11-27T14:09:03.914Z,8.61
2022-11-27T14:10:05.896Z,8.56
2022-11-27T14:11:07.910Z,8.60
2022-11-27T14:12:09.906Z,8.55
2022-11-27T14:13:11.922Z,8.53
2022-11-27T14:14:13.930Z,8.46
2022-11-27T14:15:15.925Z,8.37
2022-11-27T14:16:17.975Z,8.38
2022-11-27T14:17:19.992Z,8.35
2022-11-27T14:18:22.028Z,8.38
2022-11-27T14:19:24.041Z,8.44
2022-11-27T14:20:26.052Z,8.45
2022-11-27T14:21:28.080Z,8.44
2022-11-27T14:22:30.095Z,8.45
2022-11-27T14:23:32.112Z,8.45
2022-11-27T14:24:34.181Z,8.45
2022-11-27T14:25:36.213Z,8.37
2022-11-27T14:26:38.217Z,8.32
2022-11-27T14:27:40.260Z,8.29
2022-11-27T14:28:42.285Z,8.26
2022-11-27T14:29:44.313Z,8.19
2022-11-27T14:30:46.346Z,8.25
2022-11-27T14:31:48.382Z,8.27
2022-11-27T14:32:50.380Z,8.25
2022-11-27T14:34:14.118Z,8.22
2022-11-27T14:34:53.788Z,8.19
2022-11-27T14:35:55.821Z,8.23
2022-11-27T14:36:57.844Z,8.25
2022-11-27T14:37:59.852Z,8.22
2022-11-27T14:39:01.920Z,8.19
2022-11-27T14:40:03.930Z,8.19
2022-11-27T14:41:05.935Z,8.17
2022-11-27T14:42:07.925Z,8.12
2022-11-27T14:43:09.949Z,8.08
2022-11-27T14:44:12.010Z,8.08
2022-11-27T14:45:14.016Z,8.05
2022-11-27T14:46:16.098Z,8.02
2022-11-27T14:47:18.122Z,7.97
2022-11-27T14:48:20.129Z,7.96
2022-11-27T14:49:22.148Z,7.90
2022-11-27T14:50:24.153Z,7.89
2022-11-27T14:51:26.158Z,7.82
2022-11-27T14:52:28.197Z,7.76
2022-11-27T14:53:30.234Z,7.74
2022-11-27T14:54:32.270Z,7.68
2022-11-27T14:55:34.887Z,7.63
2022-11-27T14:56:35.857Z,7.60
2022-11-27T14:57:37.884Z,7.58
2022-11-27T14:58:39.896Z,7.56
2022-11-27T14:59:42.153Z,7.54
2022-11-27T15:00:43.199Z,7.50
2022-11-27T15:01:45.245Z,7.51
2022-11-27T15:02:47.388Z,7.50
2022-11-27T15:03:48.369Z,7.48
2022-11-27T15:04:50.443Z,7.48
2022-11-27T15:05:52.452Z,7.43
2022-11-27T15:06:54.445Z,7.45
2022-11-27T15:07:56.639Z,7.42
2022-11-27T15:09:23.735Z,7.43
2022-11-27T15:09:59.060Z,7.39
